Time;durP1;ratioP1;P1;durP2;ratioP2;P2;SDS_P1;SDS_P2;PMS_P1;PMS_P2;Temp;Humidity;BMP_temperature;BMP_pressure;BME280_temperature;BME280_humidity;BME280_pressure;Samples;Min_cycle;Max_cycle;Signal;HPM_P1;HPM_P2
2022/10/29 00:00:43;;;;;;;46.50;25.70;;;;;;;11.66;100.00;100843.02;1771370;81;21036;-64
2022/10/29 00:03:09;;;;;;;48.30;29.63;;;;;;;11.61;100.00;100839.66;1771235;81;21096;-65
2022/10/29 00:05:36;;;;;;;55.70;29.80;;;;;;;11.65;100.00;100839.98;1771512;81;21018;-64
2022/10/29 00:08:03;;;;;;;46.68;27.90;;;;;;;11.66;100.00;100831.14;1771428;81;21245;-65
2022/10/29 00:10:30;;;;;;;43.23;26.37;;;;;;;11.67;100.00;100828.94;1771483;81;21041;-65
2022/10/29 00:13:02;;;;;;;44.30;28.77;;;;;;;11.60;100.00;100824.76;1771667;81;20994;-64
2022/10/29 00:15:29;;;;;;;56.88;29.37;;;;;;;11.57;100.00;100820.88;1771686;81;21076;-64
2022/10/29 00:17:57;;;;;;;44.53;27.13;;;;;;;11.65;100.00;100821.52;1771844;81;21029;-65
2022/10/29 00:20:24;;;;;;;46.60;27.80;;;;;;;11.58;100.00;100814.70;1771898;81;21129;-64
2022/10/29 00:22:54;;;;;;;43.42;27.15;;;;;;;11.60;100.00;100807.15;1771455;81;21061;-65
2022/10/29 00:25:21;;;;;;;47.43;25.80;;;;;;;11.60;100.00;100804.97;1771533;81;21041;-64
2022/10/29 00:27:49;;;;;;;41.92;26.00;;;;;;;11.69;100.00;100800.73;1771459;81;21096;-65
2022/10/29 00:30:16;;;;;;;41.60;26.00;;;;;;;11.60;100.00;100795.74;1771525;81;21017;-64
2022/10/29 00:32:43;;;;;;;44.60;25.15;;;;;;;11.57;100.00;100798.45;1771514;81;21135;-65
2022/10/29 00:35:09;;;;;;;43.63;26.93;;;;;;;11.58;100.00;100792.28;1771367;81;21096;-64
2022/10/29 00:37:36;;;;;;;35.05;23.22;;;;;;;11.57;100.00;100792.70;1771585;81;20986;-64
2022/10/29 00:40:05;;;;;;;50.98;27.87;;;;;;;11.60;100.00;100799.70;1771356;81;21555;-65
2022/10/29 00:42:32;;;;;;;38.60;25.08;;;;;;;11.57;100.00;100790.53;1771677;81;21504;-65
2022/10/29 00:44:58;;;;;;;49.23;27.93;;;;;;;11.49;100.00;100794.27;1775720;80;21240;-66
2022/10/29 00:47:28;;;;;;;55.23;31.10;;;;;;;11.44;100.00;100788.74;1777878;80;21008;-65
2022/10/29 00:50:06;;;;;;;48.35;31.05;;;;;;;11.42;100.00;100787.46;1777961;80;21036;-64
2022/10/29 00:52:33;;;;;;;51.90;29.15;;;;;;;11.29;100.00;100779.03;1778150;80;21019;-65
2022/10/29 00:55:02;;;;;;;56.98;32.90;;;;;;;11.25;100.00;100777.85;1777922;80;21452;-65
2022/10/29 00:57:36;;;;;;;51.90;30.25;;;;;;;11.25;100.00;100777.85;1778073;80;21220;-66
2022/10/29 01:00:04;;;;;;;54.98;30.95;;;;;;;11.29;100.00;100782.13;1777925;80;21059;-64
2022/10/29 01:02:32;;;;;;;45.05;29.18;;;;;;;11.21;100.00;100782.83;1778155;80;21087;-65
2022/10/29 01:04:59;;;;;;;39.92;26.25;;;;;;;11.13;100.00;100781.29;1777405;78;21063;-64
2022/10/29 01:07:26;;;;;;;44.90;26.30;;;;;;;11.23;100.00;100779.70;1776385;80;20969;-64
2022/10/29 01:09:52;;;;;;;45.20;27.48;;;;;;;11.16;100.00;100766.26;1777833;80;21185;-65
2022/10/29 01:12:43;;;;;;;42.95;25.77;;;;;;;11.11;100.00;100771.23;1777947;80;21016;-63
2022/10/29 01:15:18;;;;;;;45.33;27.75;;;;;;;11.16;100.00;100759.67;1778024;80;21102;-65
2022/10/29 01:18:13;;;;;;;45.38;29.45;;;;;;;10.96;100.00;100767.72;1777738;80;21052;-65
2022/10/29 01:21:04;;;;;;;53.02;29.75;;;;;;;10.84;100.00;100768.06;1777938;80;21084;-65
2022/10/29 01:23:55;;;;;;;50.28;29.63;;;;;;;10.77;100.00;100767.38;1778201;80;21046;-65
2022/10/29 01:26:50;;;;;;;37.85;23.67;;;;;;;10.78;100.00;100769.09;1777856;80;24700;-63
2022/10/29 01:29:34;;;;;;;41.85;26.37;;;;;;;10.73;100.00;100764.86;1778309;80;21059;-64
2022/10/29 01:32:14;;;;;;;47.90;30.23;;;;;;;10.60;100.00;100763.86;1777904;80;21032;-64
2022/10/29 01:35:17;;;;;;;53.60;34.05;;;;;;;10.62;100.00;100768.64;1778210;80;21539;-65
2022/10/29 01:38:09;;;;;;;53.90;32.78;;;;;;;10.53;100.00;100768.88;1777985;80;21142;-65
2022/10/29 01:40:53;;;;;;;37.98;23.30;;;;;;;10.40;100.00;100766.16;1778181;80;21055;-65
2022/10/29 01:43:25;;;;;;;61.63;36.35;;;;;;;10.30;100.00;100768.17;1778043;80;21074;-64
2022/10/29 01:46:09;;;;;;;59.15;34.67;;;;;;;10.23;100.00;100766.11;1777838;80;21032;-65
2022/10/29 01:48:43;;;;;;;54.50;33.00;;;;;;;10.19;100.00;100765.80;1759189;80;21043;-65
2022/10/29 01:51:25;;;;;;;58.40;34.35;;;;;;;10.04;100.00;100754.33;1776734;79;21126;-64
2022/10/29 01:53:52;;;;;;;58.50;38.30;;;;;;;9.96;100.00;100761.53;1777816;80;21043;-63
2022/10/29 01:56:18;;;;;;;48.58;31.05;;;;;;;10.03;100.00;100761.80;1777946;80;21027;-65
2022/10/29 01:58:49;;;;;;;47.03;29.95;;;;;;;10.03;100.00;100757.84;1778026;80;21042;-64
2022/10/29 02:01:43;;;;;;;50.43;31.45;;;;;;;9.91;100.00;100756.38;1747719;80;21547;-65
2022/10/29 02:04:30;;;;;;;47.17;30.17;;;;;;;9.75;100.00;100756.34;1711442;83;21193;-65
2022/10/29 02:07:05;;;;;;;48.63;29.25;;;;;;;9.60;100.00;100754.95;1701046;82;22169;-65
2022/10/29 02:09:55;;;;;;;52.17;30.45;;;;;;;9.58;100.00;100750.17;1718241;82;21012;-64
2022/10/29 02:12:29;;;;;;;54.10;31.05;;;;;;;9.54;100.00;100759.02;1735348;82;21057;-65
2022/10/29 02:15:08;;;;;;;56.25;32.35;;;;;;;9.49;100.00;100755.64;1746520;82;21051;-66
2022/10/29 02:17:34;;;;;;;49.80;29.18;;;;;;;9.43;100.00;100752.25;1753670;80;21137;-65
2022/10/29 02:20:07;;;;;;;49.70;28.17;;;;;;;9.30;100.00;100748.16;1777471;80;21012;-64
2022/10/29 02:22:33;;;;;;;53.28;32.17;;;;;;;9.27;100.00;100745.61;1777754;80;21527;-65
2022/10/29 02:25:00;;;;;;;42.67;24.85;;;;;;;9.22;100.00;100744.81;1777430;80;21052;-64
2022/10/29 02:27:27;;;;;;;48.25;28.42;;;;;;;9.27;100.00;100737.72;1777610;80;21028;-66
2022/10/29 02:29:53;;;;;;;47.58;29.02;;;;;;;9.22;100.00;100732.99;1777941;80;21109;-64
2022/10/29 02:32:21;;;;;;;47.17;31.12;;;;;;;9.17;100.00;100736.17;1777756;80;22043;-64
2022/10/29 02:34:47;;;;;;;58.52;32.78;;;;;;;9.16;100.00;100736.62;1777796;80;21555;-65
2022/10/29 02:37:15;;;;;;;50.23;30.62;;;;;;;9.16;100.00;100727.89;1777743;80;21091;-64
2022/10/29 02:39:42;;;;;;;50.43;29.42;;;;;;;9.17;100.00;100728.30;1778069;80;21028;-64
2022/10/29 02:42:10;;;;;;;54.93;32.63;;;;;;;9.09;100.00;100723.22;1777809;80;21161;-64
2022/10/29 02:44:36;;;;;;;50.20;30.37;;;;;;;9.10;100.00;100714.42;1774372;80;21053;-64
2022/10/29 02:47:03;;;;;;;52.55;31.55;;;;;;;8.93;100.00;100720.50;1771188;81;21127;-65
2022/10/29 02:49:30;;;;;;;51.77;31.05;;;;;;;8.79;100.00;100724.72;1771442;81;21077;-65
2022/10/29 02:51:57;;;;;;;53.33;29.72;;;;;;;8.79;100.00;100723.41;1771156;81;21140;-64
2022/10/29 02:54:23;;;;;;;46.98;28.98;;;;;;;8.80;100.00;100721.18;1771009;81;22005;-63
2022/10/29 02:56:50;;;;;;;45.58;29.40;;;;;;;8.80;100.00;100719.87;1771134;81;21517;-64
2022/10/29 02:59:16;;;;;;;49.00;29.90;;;;;;;8.82;100.00;100712.83;1771115;81;21029;-65
2022/10/29 03:01:43;;;;;;;48.35;28.20;;;;;;;8.88;100.00;100717.97;1775420;80;21100;-64
2022/10/29 03:04:10;;;;;;;43.83;27.93;;;;;;;8.78;100.00;100712.01;1777752;80;21095;-66
2022/10/29 03:06:37;;;;;;;42.30;26.12;;;;;;;8.72;100.00;100717.83;1777657;80;21835;-65
2022/10/29 03:09:04;;;;;;;43.30;25.65;;;;;;;8.64;100.00;100719.31;1777757;80;21095;-64
2022/10/29 03:11:31;;;;;;;47.20;29.15;;;;;;;8.59;100.00;100719.39;1777668;80;21480;-65
2022/10/29 03:13:58;;;;;;;49.03;30.15;;;;;;;8.61;100.00;100727.25;1777656;80;21028;-64
2022/10/29 03:16:24;;;;;;;48.02;28.75;;;;;;;8.57;100.00;100731.69;1777773;80;21052;-65
2022/10/29 03:18:51;;;;;;;40.88;24.80;;;;;;;8.57;100.00;100725.13;1777793;80;21231;-65
2022/10/29 03:21:18;;;;;;;48.78;29.50;;;;;;;8.57;100.00;100718.56;1777591;80;21027;-66
2022/10/29 03:23:45;;;;;;;48.87;30.37;;;;;;;8.52;100.00;100713.85;1777466;80;22064;-65
2022/10/29 03:26:11;;;;;;;59.50;33.00;;;;;;;8.45;100.00;100721.42;1777482;80;21063;-64
2022/10/29 03:28:38;;;;;;;50.20;32.28;;;;;;;8.47;100.00;100710.45;1777705;80;21063;-65
2022/10/29 03:31:05;;;;;;;53.60;31.75;;;;;;;8.43;100.00;100711.41;1777477;80;21551;-64
2022/10/29 03:33:32;;;;;;;59.30;34.38;;;;;;;8.35;100.00;100705.38;1777646;80;21087;-64
2022/10/29 03:36:00;;;;;;;55.43;32.95;;;;;;;8.28;100.00;100703.77;1777873;80;21012;-64
2022/10/29 03:38:26;;;;;;;50.35;29.07;;;;;;;8.29;100.00;100688.01;1777724;80;21091;-65
2022/10/29 03:40:53;;;;;;;52.27;32.03;;;;;;;8.24;100.00;100695.11;1777783;80;21091;-65
2022/10/29 03:43:20;;;;;;;51.33;31.42;;;;;;;8.24;100.00;100692.48;1777866;80;21140;-64
2022/10/29 03:45:54;;;;;;;54.10;31.27;;;;;;;8.22;100.00;100682.91;1781015;80;21005;-64
2022/10/29 03:48:21;;;;;;;42.45;26.40;;;;;;;8.13;100.00;100682.17;1783862;80;21074;-64
2022/10/29 03:50:56;;;;;;;42.05;25.32;;;;;;;8.14;100.00;100683.03;1783590;80;21013;-66
2022/10/29 03:53:23;;;;;;;42.67;27.35;;;;;;;8.07;100.00;100684.90;1783418;80;21083;-64
2022/10/29 03:55:52;;;;;;;43.52;27.17;;;;;;;8.04;100.00;100690.20;1783559;80;21547;-65
2022/10/29 03:58:18;;;;;;;42.30;25.00;;;;;;;8.11;100.00;100689.20;1783684;80;20997;-65
2022/10/29 04:01:01;;;;;;;46.58;27.17;;;;;;;8.09;100.00;100691.44;1783519;80;21111;-64
2022/10/29 04:03:30;;;;;;;46.30;28.42;;;;;;;8.01;100.00;100675.84;1782168;80;21102;-67
2022/10/29 04:05:59;;;;;;;47.15;30.43;;;;;;;7.98;100.00;100668.91;1783149;80;21072;-64
2022/10/29 04:08:25;;;;;;;53.08;31.60;;;;;;;8.00;100.00;100662.30;1783564;80;21424;-65
2022/10/29 04:10:52;;;;;;;51.95;30.70;;;;;;;7.99;100.00;100664.52;1783506;80;21044;-64
2022/10/29 04:13:20;;;;;;;50.83;30.85;;;;;;;8.02;100.00;100669.70;1783684;80;20984;-64
2022/10/29 04:15:48;;;;;;;56.53;32.03;;;;;;;7.99;100.00;100665.83;1783343;80;21035;-65
2022/10/29 04:18:14;;;;;;;49.83;32.25;;;;;;;7.90;100.00;100671.23;1743607;80;21096;-65
2022/10/29 04:20:42;;;;;;;54.08;32.30;;;;;;;7.78;100.00;100667.06;1783343;80;21149;-65
2022/10/29 04:23:09;;;;;;;57.62;33.73;;;;;;;7.70;100.00;100658.00;1783082;80;21052;-65
2022/10/29 04:25:35;;;;;;;44.40;28.02;;;;;;;7.80;100.00;100660.46;1783192;80;21048;-65
2022/10/29 04:28:02;;;;;;;41.10;25.97;;;;;;;7.73;100.00;100664.52;1783473;80;21075;-66
2022/10/29 04:30:29;;;;;;;42.27;24.25;;;;;;;7.72;100.00;100661.91;1783339;80;20989;-64
2022/10/29 04:32:59;;;;;;;40.70;25.60;;;;;;;7.73;100.00;100659.70;1783538;80;21296;-65
2022/10/29 04:35:27;;;;;;;41.63;25.70;;;;;;;7.72;100.00;100661.91;1783797;80;21001;-66
2022/10/29 04:37:54;;;;;;;45.83;27.35;;;;;;;7.65;100.00;100658.53;1783815;80;21505;-66
2022/10/29 04:40:23;;;;;;;37.15;24.92;;;;;;;7.60;100.00;100665.61;1783785;80;20977;-64
2022/10/29 04:42:50;;;;;;;42.60;26.80;;;;;;;7.68;100.00;100665.47;1784122;80;20972;-65
2022/10/29 04:45:18;;;;;;;55.08;32.53;;;;;;;7.66;100.00;100661.59;1776865;80;21551;-65
2022/10/29 04:47:45;;;;;;;58.20;34.25;;;;;;;7.77;100.00;100666.17;1757613;81;21028;-65
2022/10/29 04:50:11;;;;;;;51.02;31.50;;;;;;;7.72;100.00;100670.64;1755537;81;21044;-65
2022/10/29 04:52:38;;;;;;;55.43;32.85;;;;;;;7.76;100.00;100665.77;1755346;81;21103;-64
2022/10/29 04:55:07;;;;;;;60.30;34.48;;;;;;;7.69;100.00;100672.47;1765457;80;21087;-64
2022/10/29 04:57:35;;;;;;;58.50;32.93;;;;;;;7.66;100.00;100673.38;1769296;81;21035;-66
2022/10/29 05:00:03;;;;;;;58.45;33.80;;;;;;;7.76;100.00;100674.95;1738590;82;21040;-64
2022/10/29 05:02:29;;;;;;;54.60;32.48;;;;;;;7.70;100.00;100667.17;1767760;80;21362;-66
2022/10/29 05:04:56;;;;;;;54.85;33.95;;;;;;;7.76;100.00;100660.53;1744758;82;21032;-64
2022/10/29 05:07:23;;;;;;;60.03;34.78;;;;;;;7.67;100.00;100656.75;1768999;80;21019;-65
2022/10/29 05:09:49;;;;;;;50.92;31.25;;;;;;;7.73;100.00;100661.91;1769146;81;22262;-64
2022/10/29 05:12:17;;;;;;;56.18;33.67;;;;;;;7.71;100.00;100658.44;1769086;81;21064;-64
2022/10/29 05:14:44;;;;;;;55.28;32.05;;;;;;;7.82;100.00;100657.37;1769115;81;21004;-66
2022/10/29 05:17:11;;;;;;;55.12;31.37;;;;;;;7.94;100.00;100646.69;1738426;82;21045;-65
2022/10/29 05:19:37;;;;;;;45.75;29.70;;;;;;;8.03;100.00;100653.08;1767831;80;21054;-65
2022/10/29 05:22:04;;;;;;;42.23;26.12;;;;;;;8.18;100.00;100653.23;1766821;81;21459;-64
2022/10/29 05:24:31;;;;;;;51.23;30.97;;;;;;;8.20;100.00;100648.37;1766491;81;21519;-65
2022/10/29 05:26:58;;;;;;;51.73;28.25;;;;;;;8.24;100.00;100646.56;1749405;82;21079;-64
2022/10/29 05:29:24;;;;;;;45.45;27.67;;;;;;;8.35;100.00;100645.02;1769097;80;21036;-65
2022/10/29 05:31:54;;;;;;;54.15;34.70;;;;;;;8.33;100.00;100638.97;1768949;81;21040;-65
2022/10/29 05:34:21;;;;;;;61.35;34.35;;;;;;;8.39;100.00;100638.83;1738640;82;21220;-64
2022/10/29 05:36:48;;;;;;;56.92;34.23;;;;;;;8.52;100.00;100643.43;1769760;80;21054;-66
2022/10/29 05:39:16;;;;;;;57.53;35.35;;;;;;;8.68;100.00;100650.55;1749796;82;21177;-65
2022/10/29 05:41:43;;;;;;;53.98;32.58;;;;;;;8.78;100.00;100652.06;1768897;81;21067;-64
2022/10/29 05:44:09;;;;;;;55.85;35.60;;;;;;;8.93;100.00;100652.20;1771909;80;21057;-65
2022/10/29 05:46:36;;;;;;;64.92;37.65;;;;;;;8.88;100.00;100647.47;1777829;80;21192;-64
2022/10/29 05:49:03;;;;;;;50.08;32.85;;;;;;;9.06;100.00;100653.63;1777911;80;21021;-66
2022/10/29 05:51:30;;;;;;;52.40;34.33;;;;;;;9.31;100.00;100648.68;1777885;80;21034;-67
2022/10/29 05:53:56;;;;;;;55.25;33.83;;;;;;;9.61;100.00;100647.53;1778083;80;21540;-65
2022/10/29 05:56:23;;;;;;;54.58;30.62;;;;;;;10.12;100.00;100635.70;1777901;80;21584;-65
2022/10/29 05:58:49;;;;;;;45.40;29.45;;;;;;;10.70;100.00;100632.33;1778049;80;21190;-65
2022/10/29 06:01:18;;;;;;;41.15;26.87;;;;;;;11.32;100.00;100630.45;1777657;80;21021;-66
2022/10/29 06:03:45;;;;;;;35.10;25.17;;;;;;;12.05;100.00;100619.20;1777781;80;21065;-65
2022/10/29 06:06:12;;;;;;;36.05;23.40;;;;;;;12.80;100.00;100627.00;1777897;80;20965;-65
2022/10/29 06:08:40;;;;;;;33.45;22.10;;;;;;;13.46;100.00;100627.98;1778148;80;21048;-66
2022/10/29 06:11:08;;;;;;;41.40;23.35;;;;;;;14.02;100.00;100617.66;1777871;80;21411;-66
2022/10/29 06:13:35;;;;;;;30.32;20.55;;;;;;;14.42;100.00;100619.88;1777786;80;20993;-66
2022/10/29 06:16:03;;;;;;;33.05;20.75;;;;;;;14.77;100.00;100622.73;1777626;80;21611;-65
2022/10/29 06:18:30;;;;;;;28.62;19.82;;;;;;;15.25;100.00;100614.70;1777912;80;21021;-67
2022/10/29 06:20:59;;;;;;;30.62;19.02;;;;;;;15.58;100.00;100615.77;1778141;80;21037;-66
2022/10/29 06:23:27;;;;;;;33.33;21.15;;;;;;;15.99;100.00;100621.66;1778188;80;21270;-66
2022/10/29 06:25:54;;;;;;;31.68;19.05;;;;;;;16.27;100.00;100617.08;1778157;80;21013;-66
2022/10/29 06:28:21;;;;;;;28.83;19.37;;;;;;;16.55;100.00;100609.80;1778196;80;22215;-65
2022/10/29 06:30:49;;;;;;;26.87;17.52;;;;;;;16.84;100.00;100604.73;1778195;80;21513;-66
2022/10/29 06:33:17;;;;;;;29.23;18.67;;;;;;;17.18;99.77;100613.46;1778124;80;21509;-66
2022/10/29 06:35:44;;;;;;;29.05;18.15;;;;;;;17.25;96.99;100609.50;1777980;80;21230;-66
2022/10/29 06:38:11;;;;;;;27.85;18.75;;;;;;;17.24;96.10;100602.48;1778056;80;21134;-65
2022/10/29 06:40:41;;;;;;;24.50;17.80;;;;;;;17.24;95.98;100606.47;1778146;80;21009;-65
2022/10/29 06:43:11;;;;;;;29.87;19.00;;;;;;;17.13;96.94;100596.42;1778020;80;21108;-66
2022/10/29 06:45:38;;;;;;;31.87;20.57;;;;;;;16.95;96.50;100587.67;1745094;80;21068;-66
2022/10/29 06:48:06;;;;;;;32.55;20.95;;;;;;;16.66;96.56;100589.77;1743100;82;21247;-66
2022/10/29 06:50:32;;;;;;;33.30;21.33;;;;;;;16.28;87.12;100588.22;1743021;82;21045;-66
2022/10/29 06:53:01;;;;;;;33.83;19.52;;;;;;;16.01;88.29;100587.91;1743215;80;21054;-65
2022/10/29 06:55:28;;;;;;;26.33;17.90;;;;;;;15.67;90.27;100586.09;1743302;82;21011;-67
2022/10/29 06:58:05;;;;;;;29.48;18.90;;;;;;;15.36;92.21;100585.44;1743152;82;21096;-65
2022/10/29 07:00:32;;;;;;;33.55;20.20;;;;;;;15.36;85.56;100584.96;1740999;82;21093;-65
2022/10/29 07:02:59;;;;;;;39.63;19.82;;;;;;;15.03;87.34;100574.22;1743068;82;21065;-65
2022/10/29 07:05:26;;;;;;;31.90;18.20;;;;;;;15.04;87.36;100561.34;1743508;82;21152;-65
2022/10/29 07:07:58;;;;;;;31.40;20.30;;;;;;;14.88;87.89;100560.78;1743146;80;21281;-66
2022/10/29 07:10:27;;;;;;;33.33;20.37;;;;;;;14.71;88.77;100558.06;1741753;82;20997;-66
2022/10/29 07:12:54;;;;;;;33.28;20.02;;;;;;;14.50;89.92;100553.74;1742950;82;21127;-65
2022/10/29 07:15:21;;;;;;;34.00;21.23;;;;;;;14.58;91.25;100562.21;1741567;80;21085;-65
2022/10/29 07:18:00;;;;;;;40.10;22.20;;;;;;;14.53;90.83;100556.23;1742994;82;21597;-65
2022/10/29 07:21:46;;;;;;;44.15;24.87;;;;;;;13.81;95.40;100548.44;1814351;79;22514;-66
2022/10/29 07:24:12;;;;;;;51.70;27.00;;;;;;;13.88;94.62;100547.70;1787706;80;20984;-65
2022/10/29 07:26:39;;;;;;;54.70;25.92;;;;;;;13.86;94.87;100553.06;1787388;80;21190;-65
2022/10/29 07:29:06;;;;;;;49.00;24.47;;;;;;;13.86;95.25;100555.70;1787463;80;20993;-66
2022/10/29 07:31:34;;;;;;;61.60;27.13;;;;;;;13.87;96.00;100546.83;1787444;80;21041;-65
2022/10/29 07:34:00;;;;;;;53.17;26.30;;;;;;;13.88;95.71;100555.19;1787831;80;21044;-65
2022/10/29 07:36:29;;;;;;;54.48;28.60;;;;;;;14.10;94.85;100554.22;1787628;80;21052;-65
2022/10/29 07:38:57;;;;;;;52.60;26.60;;;;;;;14.14;94.64;100550.52;1787980;80;21134;-65
2022/10/29 07:41:24;;;;;;;49.55;26.48;;;;;;;14.08;94.99;100545.04;1787554;80;21039;-65
2022/10/29 07:43:51;;;;;;;42.00;23.60;;;;;;;13.92;95.60;100551.92;1781707;80;21067;-66
2022/10/29 07:46:18;;;;;;;42.43;23.47;;;;;;;13.76;96.52;100552.61;1756440;81;21381;-65
2022/10/29 07:48:45;;;;;;;42.13;22.58;;;;;;;13.67;97.53;100546.86;1756508;81;21105;-66
2022/10/29 07:51:12;;;;;;;38.45;23.70;;;;;;;13.58;98.15;100542.81;1756197;81;21059;-65
2022/10/29 07:53:39;;;;;;;36.68;22.62;;;;;;;13.47;99.47;100543.27;1756551;81;21066;-65
2022/10/29 07:56:07;;;;;;;37.60;23.40;;;;;;;13.40;100.00;100551.06;1756264;81;21008;-65
2022/10/29 07:58:33;;;;;;;38.95;22.25;;;;;;;13.36;100.00;100550.79;1756429;81;21044;-65
2022/10/29 08:01:00;;;;;;;47.83;24.12;;;;;;;13.42;100.00;100550.55;1756461;81;21094;-65
2022/10/29 08:03:26;;;;;;;40.10;22.98;;;;;;;13.38;100.00;100554.23;1731686;81;21086;-66
2022/10/29 08:06:00;;;;;;;41.83;22.55;;;;;;;13.40;100.00;100547.10;1726321;82;21054;-65
2022/10/29 08:08:27;;;;;;;42.43;23.92;;;;;;;13.52;100.00;100544.39;1726370;83;21039;-65
2022/10/29 08:10:59;;;;;;;41.65;23.57;;;;;;;13.78;100.00;100553.41;1726205;82;21043;-65
2022/10/29 08:13:26;;;;;;;37.88;23.10;;;;;;;14.02;98.81;100554.09;1726209;82;21051;-68
2022/10/29 08:15:54;;;;;;;41.37;22.22;;;;;;;14.36;97.58;100564.51;1726304;82;21590;-64
2022/10/29 08:18:22;;;;;;;53.60;24.02;;;;;;;14.79;94.82;100567.84;1725820;82;21554;-65
2022/10/29 08:20:48;;;;;;;50.63;22.85;;;;;;;15.38;91.86;100560.53;1723686;82;21093;-65
2022/10/29 08:23:17;;;;;;;43.08;21.27;;;;;;;16.07;87.91;100557.48;1721223;83;21047;-65
2022/10/29 08:25:43;;;;;;;44.40;21.40;;;;;;;17.12;83.58;100553.47;1721263;83;21116;-65
2022/10/29 08:28:14;;;;;;;41.15;20.37;;;;;;;18.12;75.47;100544.88;1721110;83;21145;-67
2022/10/29 08:30:42;;;;;;;37.67;18.00;;;;;;;18.98;71.34;100532.78;1721317;83;21601;-66
2022/10/29 08:33:10;;;;;;;36.48;17.12;;;;;;;19.91;67.53;100524.27;1720631;82;21094;-67
2022/10/29 08:35:37;;;;;;;42.25;18.77;;;;;;;20.55;63.44;100515.31;1720805;83;21071;-66
2022/10/29 08:38:04;;;;;;;34.90;18.15;;;;;;;20.64;62.62;100515.17;1720788;83;21044;-65
2022/10/29 08:40:53;;;;;;;30.50;17.30;;;;;;;20.29;61.57;100515.84;1720630;83;21235;-66
2022/10/29 08:43:46;;;;;;;36.00;17.73;;;;;;;20.02;62.21;100512.84;1720644;83;21071;-66
2022/10/29 08:46:21;;;;;;;36.17;17.90;;;;;;;19.46;63.84;100503.77;1720414;83;21217;-64
2022/10/29 08:48:52;;;;;;;33.63;17.30;;;;;;;19.13;65.14;100518.89;1720568;83;21632;-65
2022/10/29 08:51:38;;;;;;;42.05;18.55;;;;;;;18.65;66.90;100515.78;1720309;83;21076;-65
2022/10/29 08:54:07;;;;;;;35.28;16.45;;;;;;;18.40;68.25;100515.16;1720704;83;21186;-64
2022/10/29 08:56:36;;;;;;;29.82;17.37;;;;;;;18.26;68.53;100504.03;1692486;83;21557;-66
2022/10/29 08:59:23;;;;;;;38.13;18.37;;;;;;;18.46;68.92;100510.78;1720645;83;21044;-65
2022/10/29 09:01:55;;;;;;;34.98;16.80;;;;;;;18.94;67.20;100496.58;1720510;82;21116;-66
2022/10/29 09:04:34;;;;;;;;;;;;;;;19.33;65.66;100490.02;1723143;83;21057;-67
2022/10/29 09:07:28;;;;;;;37.10;18.35;;;;;;;19.53;64.92;100488.63;1721148;83;21812;-67
2022/10/29 09:10:10;;;;;;;42.95;17.25;;;;;;;19.75;64.02;100487.56;1720701;83;21057;-65
2022/10/29 09:13:08;;;;;;;37.98;17.32;;;;;;;19.41;64.90;100485.83;1712148;83;21073;-65
2022/10/29 09:15:50;;;;;;;44.05;18.20;;;;;;;19.22;64.89;100485.39;1720646;83;21048;-67
2022/10/29 09:18:54;;;;;;;52.55;20.65;;;;;;;18.98;65.51;100491.42;1706513;83;21085;-65
2022/10/29 09:21:32;;;;;;;43.55;19.73;;;;;;;18.71;66.91;100489.20;1716244;83;21506;-66
2022/10/29 09:24:31;;;;;;;45.05;20.23;;;;;;;18.50;68.43;100482.97;1712855;83;21050;-66
2022/10/29 09:26:59;;;;;;;45.23;19.05;;;;;;;18.01;70.23;100478.94;1675429;85;21066;-65
2022/10/29 09:29:44;;;;;;;48.52;18.42;;;;;;;18.23;69.91;100473.09;1713038;83;21522;-66
2022/10/29 09:32:20;;;;;;;45.75;19.87;;;;;;;18.33;69.67;100476.52;1712877;83;21080;-66
2022/10/29 09:34:51;;;;;;;43.98;19.32;;;;;;;18.55;69.09;100470.19;1712932;83;21787;-65
2022/10/29 09:37:26;;;;;;;36.53;17.05;;;;;;;18.65;69.21;100465.09;1648504;86;21559;-67
2022/10/29 09:39:52;;;;;;;36.23;16.67;;;;;;;18.76;68.41;100458.58;1712907;83;21120;-65
2022/10/29 09:42:24;;;;;;;33.60;17.42;;;;;;;19.02;68.27;100447.52;1713198;83;21089;-66
2022/10/29 09:44:55;;;;;;;37.93;17.60;;;;;;;18.87;67.71;100436.56;1730511;82;21049;-66
2022/10/29 09:47:51;;;;;;;32.83;16.55;;;;;;;18.88;67.63;100423.59;1742503;82;21212;-66
2022/10/29 09:50:40;;;;;;;32.38;15.68;;;;;;;18.62;68.17;100423.48;1708912;83;21648;-67
2022/10/29 09:53:07;;;;;;;34.08;16.35;;;;;;;18.43;68.46;100413.17;1708912;84;20999;-65
2022/10/29 09:55:42;;;;;;;36.75;17.70;;;;;;;18.35;69.71;100409.28;1709125;83;21137;-65
2022/10/29 09:58:17;;;;;;;36.20;16.62;;;;;;;18.69;69.29;100410.59;1708981;84;21749;-67
2022/10/29 10:00:43;;;;;;;30.65;15.30;;;;;;;19.03;68.46;100410.55;1709153;84;21148;-67
2022/10/29 10:03:21;;;;;;;34.70;16.23;;;;;;;19.41;66.53;100404.38;1708904;82;21104;-66
2022/10/29 10:06:05;;;;;;;36.48;15.83;;;;;;;19.53;65.83;100400.48;1709215;84;21590;-66
2022/10/29 10:08:34;;;;;;;25.32;14.13;;;;;;;19.79;65.12;100388.85;1708993;83;21093;-65
2022/10/29 10:11:05;;;;;;;32.30;14.58;;;;;;;19.91;64.07;100377.27;1709376;83;21609;-65
2022/10/29 10:13:36;;;;;;;25.23;14.28;;;;;;;20.02;63.60;100359.62;1742284;82;21093;-65
2022/10/29 10:16:04;;;;;;;28.52;14.70;;;;;;;19.86;63.57;100356.71;1742585;82;21060;-66
2022/10/29 10:18:40;;;;;;;22.07;14.50;;;;;;;19.62;64.47;100357.09;1742371;82;21050;-65
2022/10/29 10:21:11;;;;;;;23.65;13.75;;;;;;;19.43;65.17;100361.06;1708982;83;21592;-65
2022/10/29 10:23:51;;;;;;;27.60;14.85;;;;;;;19.49;65.60;100364.65;1708958;84;21382;-64
2022/10/29 10:26:31;;;;;;;23.27;14.70;;;;;;;19.47;66.16;100357.22;1709203;83;21553;-67
2022/10/29 10:29:21;;;;;;;24.15;14.25;;;;;;;19.38;66.28;100349.02;1708976;84;21078;-65
2022/10/29 10:31:51;;;;;;;32.73;14.87;;;;;;;19.23;67.15;100348.25;1742578;82;21092;-67
2022/10/29 10:34:21;;;;;;;23.52;13.80;;;;;;;19.05;67.62;100337.91;1740841;82;21066;-66
2022/10/29 10:37:12;;;;;;;25.45;15.48;;;;;;;18.89;67.95;100331.04;1709209;83;21075;-64
2022/10/29 10:39:46;;;;;;;26.68;15.50;;;;;;;18.64;68.90;100320.69;1709355;83;21250;-65
2022/10/29 10:42:25;;;;;;;26.95;14.45;;;;;;;18.47;70.13;100308.96;1709048;83;21098;-65
2022/10/29 10:44:57;;;;;;;24.82;14.73;;;;;;;18.27;71.23;100294.28;1707765;83;21100;-66
2022/10/29 10:47:26;;;;;;;28.35;15.10;;;;;;;18.11;73.08;100281.99;1742565;82;21042;-66
2022/10/29 10:49:53;;;;;;;25.03;14.43;;;;;;;17.90;75.42;100282.05;1743026;82;21054;-65
2022/10/29 10:52:29;;;;;;;24.85;14.45;;;;;;;17.80;75.78;100291.94;1742468;82;21803;-64
2022/10/29 10:55:02;;;;;;;22.85;13.70;;;;;;;17.85;77.41;100317.46;1742567;82;21060;-64
2022/10/29 10:57:39;;;;;;;24.55;13.08;;;;;;;17.65;78.85;100301.41;1721471;82;21611;-66
2022/10/29 11:00:15;;;;;;;19.85;13.03;;;;;;;17.51;80.26;100287.16;1742452;82;21563;-66
2022/10/29 11:02:48;;;;;;;20.17;12.15;;;;;;;17.30;81.36;100282.72;1742528;81;21028;-66
2022/10/29 11:05:25;;;;;;;22.02;12.95;;;;;;;17.29;81.35;100287.64;1742813;82;21097;-64
2022/10/29 11:08:09;;;;;;;23.62;13.65;;;;;;;17.29;82.03;100283.66;1742765;82;21055;-65
2022/10/29 11:10:59;;;;;;;24.07;14.50;;;;;;;17.14;83.16;100280.64;1742563;82;21079;-65
2022/10/29 11:13:29;;;;;;;22.98;13.62;;;;;;;17.19;84.92;100285.19;1742537;82;21133;-65
2022/10/29 11:16:21;;;;;;;26.85;14.68;;;;;;;17.16;85.83;100288.02;1742596;82;21047;-66
2022/10/29 11:18:55;;;;;;;23.47;13.93;;;;;;;17.13;85.10;100284.23;1742430;82;22008;-67
2022/10/29 11:21:33;;;;;;;22.93;13.78;;;;;;;17.15;85.47;100285.84;1741055;82;21084;-66
2022/10/29 11:24:18;;;;;;;38.23;24.65;;;;;;;17.27;83.45;100274.91;1748012;82;21092;-64
2022/10/29 11:26:52;;;;;;;30.37;15.60;;;;;;;17.31;83.83;100281.75;1747999;82;20994;-66